createdAt,value
2023-05-16T00:01:52.288Z,9.75
2023-05-16T00:04:21.587Z,9.88
2023-05-16T00:06:48.220Z,9.68
2023-05-16T00:09:16.090Z,9.67
2023-05-16T00:11:42.718Z,9.49
2023-05-16T00:14:10.764Z,9.49
2023-05-16T00:16:37.500Z,9.59
2023-05-16T00:19:05.746Z,9.23
2023-05-16T00:21:32.447Z,9.33
2023-05-16T00:23:59.071Z,9.07
2023-05-16T00:26:26.297Z,8.97
2023-05-16T00:28:52.946Z,8.93
2023-05-16T00:31:19.614Z,8.49
2023-05-16T00:33:46.479Z,8.59
2023-05-16T00:36:13.156Z,8.58
2023-05-16T00:38:39.839Z,8.27
2023-05-16T00:41:06.509Z,8.44
2023-05-16T00:43:34.208Z,8.28
2023-05-16T00:46:02.277Z,8.28
2023-05-16T00:48:30.381Z,8.53
2023-05-16T00:50:57.850Z,8.38
2023-05-16T00:53:25.452Z,8.38
2023-05-16T00:55:52.966Z,8.32
2023-05-16T00:58:20.632Z,8.20
2023-05-16T01:00:48.682Z,8.37
2023-05-16T01:03:16.132Z,7.97
2023-05-16T01:05:42.883Z,7.92
2023-05-16T01:08:10.203Z,8.11
2023-05-16T01:10:44.894Z,7.65
2023-05-16T01:13:41.495Z,7.63
2023-05-16T01:16:13.431Z,7.55
2023-05-16T01:19:06.129Z,7.23
2023-05-16T01:21:45.308Z,7.46
2023-05-16T01:24:34.581Z,7.13
2023-05-16T01:27:06.229Z,7.05
2023-05-16T01:29:33.413Z,7.23
2023-05-16T01:32:00.267Z,7.25
2023-05-16T01:34:26.934Z,7.33
2023-05-16T01:37:05.658Z,7.19
2023-05-16T01:39:57.886Z,6.91
2023-05-16T01:42:30.549Z,7.08
2023-05-16T01:45:03.760Z,6.84
2023-05-16T01:47:33.371Z,7.01
2023-05-16T01:50:18.647Z,7.03
2023-05-16T01:52:52.210Z,6.69
2023-05-16T01:55:44.456Z,6.63
2023-05-16T01:58:12.508Z,6.87
2023-05-16T02:00:40.625Z,6.98
2023-05-16T02:03:08.103Z,7.21
2023-05-16T02:05:35.067Z,7.20
2023-05-16T02:08:01.857Z,7.08
2023-05-16T02:10:28.563Z,7.26
2023-05-16T02:12:56.424Z,7.14
2023-05-16T02:15:23.225Z,6.99
2023-05-16T02:17:51.303Z,7.08
2023-05-16T02:20:19.159Z,6.55
2023-05-16T02:22:47.532Z,6.36
2023-05-16T02:25:17.619Z,6.56
2023-05-16T02:27:44.306Z,6.46
2023-05-16T02:30:14.348Z,6.57
2023-05-16T02:32:41.409Z,6.85
2023-05-16T02:35:08.423Z,6.98
2023-05-16T02:37:35.512Z,7.16
2023-05-16T02:40:04.027Z,7.43
2023-05-16T02:42:32.006Z,7.55
2023-05-16T02:44:58.688Z,7.70
2023-05-16T02:47:25.686Z,7.81
2023-05-16T02:49:52.766Z,7.77
2023-05-16T02:52:21.187Z,7.95
2023-05-16T02:55:09.403Z,7.93
2023-05-16T02:57:35.688Z,7.94
2023-05-16T03:00:02.409Z,8.16
2023-05-16T03:02:29.099Z,8.07
2023-05-16T03:04:55.863Z,8.14
2023-05-16T03:07:22.470Z,8.29
2023-05-16T03:09:49.069Z,8.15
2023-05-16T03:12:17.126Z,8.32
2023-05-16T03:14:43.776Z,8.35
2023-05-16T03:17:11.665Z,8.29
2023-05-16T03:19:38.261Z,8.34
2023-05-16T03:22:05.115Z,7.88
2023-05-16T03:24:31.792Z,7.78
2023-05-16T03:27:00.003Z,7.77
2023-05-16T03:29:27.204Z,7.68
2023-05-16T03:31:53.911Z,7.95
2023-05-16T03:34:20.986Z,8.11
2023-05-16T03:36:52.553Z,8.23
2023-05-16T03:39:19.216Z,8.46
2023-05-16T03:41:45.860Z,8.15
2023-05-16T03:44:12.551Z,8.13
2023-05-16T03:46:39.180Z,8.16
2023-05-16T03:49:06.378Z,7.88
2023-05-16T03:51:33.386Z,7.96
2023-05-16T03:54:00.034Z,8.06
2023-05-16T03:56:27.214Z,7.97
2023-05-16T03:58:53.817Z,8.16
2023-05-16T04:01:20.476Z,8.03
2023-05-16T04:03:47.080Z,8.02
2023-05-16T04:06:15.140Z,8.24
2023-05-16T04:08:46.250Z,8.20
2023-05-16T04:11:12.840Z,8.35
2023-05-16T04:13:40.943Z,8.50
2023-05-16T04:16:07.951Z,8.46
2023-05-16T04:18:34.862Z,8.66
2023-05-16T04:21:01.789Z,8.66
2023-05-16T04:23:28.437Z,8.76
2023-05-16T04:25:56.958Z,8.92
2023-05-16T04:28:23.614Z,8.87
2023-05-16T04:30:51.988Z,9.07
2023-05-16T04:33:20.371Z,9.12
2023-05-16T04:35:47.084Z,9.21
2023-05-16T04:38:15.080Z,9.43
2023-05-16T04:40:44.876Z,9.42
2023-05-16T04:43:12.585Z,9.61
2023-05-16T04:45:40.313Z,9.70
2023-05-16T04:48:08.368Z,9.70
2023-05-16T04:50:38.418Z,9.89
2023-05-16T04:53:06.288Z,9.80
2023-05-16T04:55:32.910Z,9.96
2023-05-16T04:58:00.882Z,10.04
2023-05-16T05:00:28.768Z,10.11
2023-05-16T05:02:55.689Z,10.36
2023-05-16T05:05:22.433Z,10.29
2023-05-16T05:07:49.275Z,10.45
2023-05-16T05:10:16.010Z,10.60
2023-05-16T05:12:44.004Z,10.73
2023-05-16T05:15:10.801Z,10.95
2023-05-16T05:17:38.052Z,10.96
2023-05-16T05:20:10.466Z,11.16
2023-05-16T05:22:37.119Z,11.31
2023-05-16T05:25:04.425Z,11.45
2023-05-16T05:27:32.609Z,11.64
2023-05-16T05:29:59.198Z,11.64
2023-05-16T05:32:27.561Z,11.86
2023-05-16T05:34:54.222Z,11.96
2023-05-16T05:37:21.173Z,12.03
2023-05-16T05:39:47.828Z,12.19
2023-05-16T05:42:14.420Z,12.10
2023-05-16T05:44:42.373Z,12.27
2023-05-16T05:47:09.500Z,12.21
2023-05-16T05:49:38.330Z,12.19
2023-05-16T05:52:06.487Z,12.29
2023-05-16T05:54:33.610Z,12.07
2023-05-16T05:57:01.508Z,12.25
2023-05-16T05:59:28.140Z,12.12
2023-05-16T06:01:54.868Z,12.13
2023-05-16T06:04:21.848Z,12.17
2023-05-16T06:06:48.616Z,12.05
2023-05-16T06:09:16.645Z,12.26
2023-05-16T06:11:45.872Z,12.08
2023-05-16T06:14:14.110Z,12.25
2023-05-16T06:16:42.253Z,12.32
2023-05-16T06:19:09.116Z,12.33
2023-05-16T06:21:35.943Z,12.50
2023-05-16T06:24:03.353Z,12.38
2023-05-16T06:26:30.037Z,12.58
2023-05-16T06:28:56.672Z,12.64
2023-05-16T06:31:24.705Z,12.68
2023-05-16T06:33:51.346Z,12.82
2023-05-16T06:36:18.032Z,12.70
2023-05-16T06:38:44.898Z,12.92
2023-05-16T06:41:11.540Z,12.89
2023-05-16T06:43:38.250Z,12.94
2023-05-16T06:46:06.466Z,13.10
2023-05-16T06:48:33.233Z,12.97
2023-05-16T06:51:00.587Z,13.16
2023-05-16T06:53:27.429Z,13.25
2023-05-16T06:55:54.187Z,13.27
2023-05-16T06:58:20.874Z,13.41
2023-05-16T07:00:50.042Z,13.33
2023-05-16T07:03:16.891Z,13.47
2023-05-16T07:05:43.578Z,13.52
2023-05-16T07:08:12.348Z,13.49
2023-05-16T07:10:39.741Z,13.69
2023-05-16T07:13:07.030Z,13.67
2023-05-16T07:15:33.835Z,13.77
2023-05-16T07:18:01.031Z,13.83
2023-05-16T07:20:27.714Z,13.86
2023-05-16T07:22:55.966Z,14.09
2023-05-16T07:25:23.727Z,14.25
2023-05-16T07:27:50.580Z,14.27
2023-05-16T07:30:18.849Z,14.43
2023-05-16T07:32:45.595Z,14.30
2023-05-16T07:35:13.414Z,14.37
2023-05-16T07:37:42.497Z,14.41
2023-05-16T07:40:10.835Z,14.22
2023-05-16T07:42:37.561Z,14.43
2023-05-16T07:45:05.423Z,14.38
2023-05-16T07:47:32.154Z,14.31
2023-05-16T07:49:59.359Z,14.55
2023-05-16T07:52:26.345Z,14.49
2023-05-16T07:54:54.201Z,14.64
2023-05-16T07:57:22.728Z,14.84
2023-05-16T07:59:53.572Z,14.75
2023-05-16T08:02:20.372Z,14.99
2023-05-16T08:04:48.710Z,15.22
2023-05-16T08:07:15.384Z,15.41
2023-05-16T08:09:42.201Z,15.44
2023-05-16T08:12:10.592Z,15.54
2023-05-16T08:14:38.689Z,15.72
2023-05-16T08:17:05.435Z,15.84
2023-05-16T08:19:34.454Z,15.84
2023-05-16T08:22:01.562Z,16.02
2023-05-16T08:24:29.524Z,16.20
2023-05-16T08:26:56.172Z,16.21
2023-05-16T08:29:22.858Z,16.20
2023-05-16T08:31:49.673Z,16.31
2023-05-16T08:34:16.537Z,16.37
2023-05-16T08:36:43.349Z,16.42
2023-05-16T08:39:11.725Z,16.34
2023-05-16T08:41:39.413Z,16.48
2023-05-16T08:44:06.461Z,16.41
2023-05-16T08:46:35.840Z,16.42
2023-05-16T08:49:09.354Z,16.14
2023-05-16T08:51:40.399Z,16.24
2023-05-16T08:54:12.065Z,16.46
2023-05-16T08:56:40.770Z,16.50
2023-05-16T08:59:08.059Z,16.24
2023-05-16T09:01:35.153Z,16.44
2023-05-16T09:04:04.371Z,16.63
2023-05-16T09:06:31.484Z,16.78
2023-05-16T09:08:58.274Z,16.67
2023-05-16T09:11:26.694Z,16.79
2023-05-16T09:13:53.394Z,17.03
2023-05-16T09:16:21.324Z,17.29
2023-05-16T09:18:59.367Z,17.27
2023-05-16T09:21:29.482Z,17.25
2023-05-16T09:23:56.259Z,17.43
2023-05-16T09:26:24.221Z,17.57
2023-05-16T09:28:56.148Z,17.71
2023-05-16T09:31:26.782Z,17.71
2023-05-16T09:33:58.091Z,17.68
2023-05-16T09:36:26.041Z,17.83
2023-05-16T09:38:53.450Z,18.04
2023-05-16T09:41:22.298Z,18.22
2023-05-16T09:43:49.021Z,18.27
2023-05-16T09:46:16.864Z,18.02
2023-05-16T09:48:48.632Z,18.01
2023-05-16T09:51:17.789Z,18.29
2023-05-16T09:53:44.492Z,18.48
2023-05-16T09:56:13.597Z,18.63
2023-05-16T09:58:42.100Z,18.89
2023-05-16T10:01:09.966Z,18.93
2023-05-16T10:03:38.882Z,19.06
2023-05-16T10:06:06.999Z,19.22
2023-05-16T10:08:36.742Z,19.32
2023-05-16T10:11:08.177Z,19.48
2023-05-16T10:13:36.545Z,19.52
2023-05-16T10:16:12.545Z,19.54
2023-05-16T10:18:40.646Z,19.62
2023-05-16T10:21:15.106Z,19.45
2023-05-16T10:23:43.265Z,19.35
2023-05-16T10:26:11.459Z,19.32
2023-05-16T10:28:39.376Z,19.19
2023-05-16T10:31:07.644Z,18.91
2023-05-16T10:33:37.675Z,19.09
2023-05-16T10:36:05.606Z,19.20
2023-05-16T10:38:33.750Z,19.22
2023-05-16T10:41:01.887Z,19.36
2023-05-16T10:43:31.070Z,19.48
2023-05-16T10:46:05.934Z,19.59
2023-05-16T10:48:37.048Z,19.65
2023-05-16T10:51:26.008Z,19.72
2023-05-16T10:53:55.266Z,19.69
2023-05-16T10:56:26.900Z,19.67
2023-05-16T10:58:56.099Z,19.75
2023-05-16T11:01:29.449Z,19.81
2023-05-16T11:03:58.983Z,19.83
2023-05-16T11:06:33.240Z,19.86
2023-05-16T11:09:12.084Z,19.89
2023-05-16T11:11:50.016Z,19.87
2023-05-16T11:14:47.826Z,19.79
2023-05-16T11:17:20.725Z,19.64
2023-05-16T11:19:55.584Z,19.57
2023-05-16T11:22:23.566Z,19.66
2023-05-16T11:25:03.018Z,19.71
2023-05-16T11:27:34.500Z,19.69
2023-05-16T11:30:07.124Z,19.65
2023-05-16T11:32:36.940Z,19.75
2023-05-16T11:35:05.219Z,19.85
2023-05-16T11:37:33.033Z,19.88
2023-05-16T11:40:08.202Z,19.88
2023-05-16T11:42:36.739Z,19.92
2023-05-16T11:45:14.744Z,19.87
2023-05-16T11:47:44.620Z,19.95
2023-05-16T11:50:14.682Z,19.98
2023-05-16T11:52:54.953Z,20.00
2023-05-16T11:55:39.334Z,20.08
2023-05-16T11:58:11.928Z,20.09
2023-05-16T12:00:48.169Z,20.10
2023-05-16T12:03:15.349Z,20.23
2023-05-16T12:05:53.793Z,20.29
2023-05-16T12:08:27.802Z,20.23
2023-05-16T12:10:54.837Z,20.15
2023-05-16T12:13:23.788Z,20.19
2023-05-16T12:15:52.805Z,20.16
2023-05-16T12:18:24.183Z,20.04
2023-05-16T12:20:51.295Z,19.99
2023-05-16T12:23:19.266Z,19.97
2023-05-16T12:25:47.177Z,20.02
2023-05-16T12:28:15.300Z,20.04
2023-05-16T12:30:45.478Z,20.01
2023-05-16T12:33:16.353Z,19.99
2023-05-16T12:35:45.269Z,20.00
2023-05-16T12:38:14.296Z,19.95
2023-05-16T12:40:42.704Z,19.91
2023-05-16T12:43:23.065Z,19.91
2023-05-16T12:45:56.374Z,19.91
2023-05-16T12:48:24.515Z,19.85
2023-05-16T12:50:51.713Z,19.85
2023-05-16T12:53:21.075Z,19.95
2023-05-16T12:55:47.732Z,20.12
2023-05-16T12:58:14.495Z,20.26
2023-05-16T13:00:42.638Z,20.45
2023-05-16T13:03:09.389Z,20.50
2023-05-16T13:05:36.596Z,20.44
2023-05-16T13:08:03.836Z,20.33
2023-05-16T13:10:30.731Z,20.25
2023-05-16T13:12:59.965Z,20.31
2023-05-16T13:15:28.752Z,20.26
2023-05-16T13:17:55.920Z,20.25
2023-05-16T13:20:22.744Z,20.18
2023-05-16T13:22:49.384Z,20.12
2023-05-16T13:25:16.294Z,19.97
2023-05-16T13:27:43.006Z,19.85
2023-05-16T13:30:11.307Z,19.75
2023-05-16T13:32:38.229Z,19.63
2023-05-16T13:35:06.104Z,19.52
2023-05-16T13:37:32.951Z,19.55
2023-05-16T13:39:59.730Z,19.56
2023-05-16T13:42:27.632Z,19.49
2023-05-16T13:44:57.197Z,19.41
2023-05-16T13:47:25.210Z,19.34
2023-05-16T13:49:53.665Z,19.09
2023-05-16T13:52:22.357Z,18.28
2023-05-16T13:54:49.011Z,18.33
2023-05-16T13:57:15.714Z,18.26
2023-05-16T14:00:04.003Z,18.16
2023-05-16T14:02:30.266Z,18.07
2023-05-16T14:04:56.978Z,18.02
2023-05-16T14:07:23.649Z,17.90
2023-05-16T14:09:50.418Z,17.56
2023-05-16T14:12:17.237Z,17.10
2023-05-16T14:14:44.002Z,17.26
2023-05-16T14:17:10.697Z,17.32
2023-05-16T14:19:37.421Z,17.41
2023-05-16T14:22:05.377Z,17.44
2023-05-16T14:24:32.168Z,17.31
2023-05-16T14:27:00.055Z,17.35
2023-05-16T14:29:26.758Z,17.29
2023-05-16T14:31:53.863Z,17.32
2023-05-16T14:34:22.392Z,16.98
2023-05-16T14:36:49.658Z,16.90
2023-05-16T14:39:16.571Z,17.05
2023-05-16T14:41:44.507Z,17.14
2023-05-16T14:44:12.513Z,17.18
2023-05-16T14:46:40.687Z,17.24
2023-05-16T14:49:09.115Z,17.16
2023-05-16T14:51:37.509Z,17.11
2023-05-16T14:54:06.960Z,17.02
2023-05-16T14:56:33.706Z,16.64
2023-05-16T14:59:01.938Z,16.71
2023-05-16T15:01:28.618Z,16.75
2023-05-16T15:03:56.629Z,16.83
2023-05-16T15:06:24.608Z,16.86
2023-05-16T15:08:51.523Z,16.86
2023-05-16T15:11:18.178Z,16.84
2023-05-16T15:13:45.905Z,16.45
2023-05-16T15:16:12.628Z,16.18
2023-05-16T15:18:40.532Z,16.28
2023-05-16T15:21:07.552Z,16.21
2023-05-16T15:23:34.251Z,16.05
2023-05-16T15:26:00.995Z,15.81
2023-05-16T15:28:29.068Z,15.47
2023-05-16T15:30:55.723Z,14.98
2023-05-16T15:33:22.352Z,14.85
2023-05-16T15:35:50.255Z,14.83
2023-05-16T15:38:18.099Z,14.88
2023-05-16T15:40:44.794Z,14.50
2023-05-16T15:43:12.783Z,14.45
2023-05-16T15:45:40.567Z,14.48
2023-05-16T15:48:07.529Z,14.39
2023-05-16T15:50:34.680Z,14.09
2023-05-16T15:53:02.000Z,14.12
2023-05-16T15:55:28.911Z,14.15
2023-05-16T15:57:59.854Z,14.09
2023-05-16T16:00:28.022Z,13.72
2023-05-16T16:02:54.902Z,13.75
2023-05-16T16:05:21.615Z,13.88
2023-05-16T16:07:48.315Z,13.69
2023-05-16T16:10:15.155Z,13.53
2023-05-16T16:12:42.962Z,13.67
2023-05-16T16:15:10.921Z,13.76
2023-05-16T16:17:37.876Z,13.51
2023-05-16T16:20:05.079Z,13.41
2023-05-16T16:22:31.770Z,13.53
2023-05-16T16:24:58.536Z,13.63
2023-05-16T16:27:25.207Z,13.20
2023-05-16T16:29:51.840Z,13.17
2023-05-16T16:32:19.974Z,13.28
2023-05-16T16:34:46.626Z,13.33
2023-05-16T16:37:14.899Z,13.04
2023-05-16T16:39:41.612Z,12.98
2023-05-16T16:42:09.925Z,13.14
2023-05-16T16:44:37.007Z,13.17
2023-05-16T16:47:05.237Z,12.82
2023-05-16T16:49:31.960Z,12.94
2023-05-16T16:51:59.077Z,13.09
2023-05-16T16:54:25.768Z,12.79
2023-05-16T16:56:52.615Z,12.69
2023-05-16T16:59:20.577Z,12.86
2023-05-16T17:01:47.281Z,12.95
2023-05-16T17:04:14.057Z,12.60
2023-05-16T17:06:41.072Z,12.69
2023-05-16T17:09:13.644Z,12.90
2023-05-16T17:11:42.284Z,12.82
2023-05-16T17:14:11.853Z,12.63
2023-05-16T17:16:38.624Z,12.79
2023-05-16T17:19:05.581Z,12.94
2023-05-16T17:21:34.625Z,12.62
2023-05-16T17:24:01.568Z,12.59
2023-05-16T17:26:29.270Z,12.77
2023-05-16T17:29:03.874Z,12.81
2023-05-16T17:31:32.240Z,12.47
2023-05-16T17:34:00.206Z,12.63
2023-05-16T17:36:26.843Z,12.80
2023-05-16T17:38:53.549Z,12.63
2023-05-16T17:41:20.596Z,12.45
2023-05-16T17:43:47.326Z,12.66
2023-05-16T17:46:14.545Z,12.83
2023-05-16T17:48:41.242Z,12.46
2023-05-16T17:51:09.306Z,12.47
2023-05-16T17:53:37.637Z,12.65
2023-05-16T17:56:04.685Z,12.71
2023-05-16T17:58:31.345Z,12.43
2023-05-16T18:00:58.113Z,12.49
2023-05-16T18:03:24.897Z,12.61
2023-05-16T18:05:52.980Z,12.59
2023-05-16T18:08:19.752Z,12.41
2023-05-16T18:10:51.655Z,12.53
2023-05-16T18:13:21.064Z,12.69
2023-05-16T18:15:47.782Z,12.54
2023-05-16T18:18:15.806Z,12.41
2023-05-16T18:20:42.918Z,12.58
2023-05-16T18:23:09.670Z,12.74
2023-05-16T18:25:36.322Z,12.41
2023-05-16T18:28:03.716Z,12.48
2023-05-16T18:30:30.473Z,12.64
2023-05-16T18:32:58.454Z,12.70
2023-05-16T18:35:29.047Z,12.39
2023-05-16T18:37:56.076Z,12.53
2023-05-16T18:40:23.187Z,12.67
2023-05-16T18:42:50.248Z,12.42
2023-05-16T18:45:17.000Z,12.35
2023-05-16T18:47:44.179Z,12.49
2023-05-16T18:50:12.408Z,12.55
2023-05-16T18:55:08.237Z,12.37
2023-05-16T18:57:35.146Z,12.50
2023-05-16T19:00:01.823Z,12.39
2023-05-16T19:02:41.072Z,12.23
2023-05-16T19:05:09.795Z,12.41
2023-05-16T19:07:37.930Z,12.44
2023-05-16T19:10:04.940Z,12.07
2023-05-16T19:12:31.852Z,12.22
2023-05-16T19:14:59.881Z,12.38
2023-05-16T19:17:26.828Z,12.15
2023-05-16T19:19:54.995Z,12.15
2023-05-16T19:22:21.746Z,12.32
2023-05-16T19:24:48.465Z,12.16
2023-05-16T19:27:15.137Z,12.06
2023-05-16T19:29:41.828Z,12.26
2023-05-16T19:32:08.685Z,12.23
2023-05-16T19:34:35.515Z,11.99
2023-05-16T19:37:03.468Z,12.14
2023-05-16T19:39:32.152Z,12.27
2023-05-16T19:42:06.721Z,11.92
2023-05-16T19:44:35.619Z,11.98
2023-05-16T19:47:04.436Z,12.11
2023-05-16T19:49:31.759Z,11.79
2023-05-16T19:51:59.130Z,11.80
2023-05-16T19:54:26.346Z,11.96
2023-05-16T19:56:53.133Z,11.96
2023-05-16T19:59:20.584Z,11.83
2023-05-16T20:01:47.313Z,11.95
2023-05-16T20:04:14.134Z,12.04
2023-05-16T20:06:41.243Z,11.84
2023-05-16T20:09:08.041Z,11.89
2023-05-16T20:11:36.814Z,12.06
2023-05-16T20:14:03.499Z,11.89
2023-05-16T20:16:30.344Z,11.91
2023-05-16T20:18:57.170Z,12.08
2023-05-16T20:21:24.222Z,11.98
2023-05-16T20:23:52.187Z,11.81
2023-05-16T20:26:19.257Z,11.98
2023-05-16T20:28:46.101Z,12.03
2023-05-16T20:31:13.061Z,11.78
2023-05-16T20:33:39.939Z,11.89
2023-05-16T20:36:08.398Z,11.99
2023-05-16T20:38:35.139Z,11.74
2023-05-16T20:41:04.587Z,11.87
2023-05-16T20:43:31.245Z,11.93
2023-05-16T20:45:59.969Z,11.58
2023-05-16T20:48:26.737Z,11.67
2023-05-16T20:50:55.825Z,11.85
2023-05-16T20:53:22.985Z,11.54
2023-05-16T20:55:49.641Z,11.64
2023-05-16T20:58:16.336Z,11.82
2023-05-16T21:00:43.057Z,11.56
2023-05-16T21:03:12.443Z,11.62
2023-05-16T21:05:40.818Z,11.83
2023-05-16T21:08:07.847Z,11.59
2023-05-16T21:10:34.544Z,11.64
2023-05-16T21:13:01.180Z,11.82
2023-05-16T21:15:28.224Z,11.66
2023-05-16T21:17:56.481Z,11.70
2023-05-16T21:20:23.238Z,11.88
2023-05-16T21:22:49.866Z,11.68
2023-05-16T21:25:16.912Z,11.57
2023-05-16T21:27:43.608Z,11.77
2023-05-16T21:30:10.739Z,11.70
2023-05-16T21:32:37.483Z,11.51
2023-05-16T21:35:06.169Z,11.68
2023-05-16T21:37:33.130Z,11.70
2023-05-16T21:40:01.224Z,11.51
2023-05-16T21:42:27.926Z,11.69
2023-05-16T21:44:54.616Z,11.83
2023-05-16T21:47:21.388Z,11.60
2023-05-16T21:49:48.124Z,11.64
2023-05-16T21:52:15.364Z,11.82
2023-05-16T21:54:42.028Z,11.63
2023-05-16T21:57:08.727Z,11.64
2023-05-16T21:59:35.414Z,11.81
2023-05-16T22:02:02.133Z,11.77
2023-05-16T22:04:28.870Z,11.52
2023-05-16T22:06:55.475Z,11.67
2023-05-16T22:09:22.273Z,11.84
2023-05-16T22:11:49.094Z,11.68
2023-05-16T22:14:15.807Z,11.53
2023-05-16T22:16:43.601Z,11.69
2023-05-16T22:19:10.585Z,11.67
2023-05-16T22:21:37.265Z,11.50
2023-05-16T22:24:04.034Z,11.67
2023-05-16T22:26:30.720Z,11.79
2023-05-16T22:28:57.478Z,11.50
2023-05-16T22:31:24.076Z,11.63
2023-05-16T22:33:50.751Z,11.80
2023-05-16T22:36:17.699Z,11.51
2023-05-16T22:38:45.477Z,11.55
2023-05-16T22:41:13.094Z,11.74
2023-05-16T22:43:39.760Z,11.59
2023-05-16T22:46:07.586Z,11.50
2023-05-16T22:48:35.293Z,11.70
2023-05-16T22:51:03.419Z,11.59
2023-05-16T22:53:30.106Z,11.46
2023-05-16T22:55:56.831Z,11.64
2023-05-16T22:58:23.579Z,11.71
2023-05-16T23:00:50.293Z,11.46
2023-05-16T23:03:18.127Z,11.58
2023-05-16T23:05:44.818Z,11.76
2023-05-16T23:08:11.510Z,11.57
2023-05-16T23:10:38.296Z,11.60
2023-05-16T23:13:04.961Z,11.76
2023-05-16T23:15:31.729Z,11.68
2023-05-16T23:17:58.606Z,11.55
2023-05-16T23:20:25.934Z,11.65
2023-05-16T23:22:52.618Z,11.58
2023-05-16T23:25:19.313Z,11.45
2023-05-16T23:27:46.916Z,11.56
2023-05-16T23:30:13.921Z,11.48
2023-05-16T23:32:40.642Z,11.12
2023-05-16T23:35:07.650Z,10.82
2023-05-16T23:37:34.358Z,10.34
2023-05-16T23:40:00.968Z,9.81
2023-05-16T23:42:27.763Z,9.65
2023-05-16T23:44:54.385Z,9.16
2023-05-16T23:47:21.338Z,9.00
2023-05-16T23:49:48.013Z,9.06
2023-05-16T23:52:16.837Z,8.74
2023-05-16T23:54:45.461Z,8.64
2023-05-16T23:57:12.128Z,8.56
2023-05-16T23:59:39.784Z,8.26
